Time;durP1;ratioP1;P1;durP2;ratioP2;P2;SDS_P1;SDS_P2;PMS_P1;PMS_P2;Temp;Humidity;BMP_temperature;BMP_pressure;BME280_temperature;BME280_humidity;BME280_pressure;Samples;Min_cycle;Max_cycle;Signal;HPM_P1;HPM_P2
2022/10/24 00:01:09;;;;;;;75.73;11.03;;;15.20;99.90;;;;;;5102328;28;20409;-83
2022/10/24 00:03:34;;;;;;;77.17;9.17;;;15.20;99.90;;;;;;5099733;28;20163;-83
2022/10/24 00:06:00;;;;;;;76.13;11.30;;;15.20;99.90;;;;;;5099239;28;20410;-83
2022/10/24 00:08:26;;;;;;;71.40;11.77;;;15.10;99.90;;;;;;5100446;28;20194;-83
2022/10/24 00:10:51;;;;;;;72.73;12.10;;;15.10;99.90;;;;;;5099940;28;20243;-83
2022/10/24 00:13:17;;;;;;;71.93;10.73;;;15.10;99.90;;;;;;5098958;28;20167;-83
2022/10/24 00:15:45;;;;;;;73.23;13.87;;;15.10;99.90;;;;;;5102115;28;20565;-83
2022/10/24 00:18:11;;;;;;;72.37;12.17;;;15.10;99.90;;;;;;5099785;28;20658;-83
2022/10/24 00:20:37;;;;;;;84.00;13.03;;;15.10;99.90;;;;;;5099122;28;20424;-83
2022/10/24 00:23:03;;;;;;;71.00;14.47;;;15.00;99.90;;;;;;5100700;28;20817;-84
2022/10/24 00:25:32;;;;;;;85.27;24.77;;;15.00;99.90;;;;;;5102074;28;20263;-83
2022/10/24 00:27:58;;;;;;;77.13;24.50;;;15.00;99.90;;;;;;5102221;28;20440;-84
2022/10/24 00:30:23;;;;;;;74.63;21.97;;;15.10;99.90;;;;;;5101279;28;20413;-83
2022/10/24 00:32:50;;;;;;;76.90;20.03;;;15.10;99.90;;;;;;5102059;28;20159;-83
2022/10/24 00:35:16;;;;;;;75.43;16.70;;;15.20;99.90;;;;;;5101554;28;20167;-83
2022/10/24 00:37:42;;;;;;;79.53;15.53;;;15.20;99.90;;;;;;5102312;28;20448;-83
2022/10/24 00:40:09;;;;;;;76.00;16.37;;;15.20;99.90;;;;;;5101947;28;20187;-83
2022/10/24 00:42:35;;;;;;;75.60;18.80;;;15.10;99.90;;;;;;5101042;28;20173;-83
2022/10/24 00:45:20;;;;;;;72.87;15.07;;;15.10;99.90;;;;;;5101887;28;20950;-83
2022/10/24 00:47:46;;;;;;;75.50;15.97;;;15.10;99.90;;;;;;5100054;28;20468;-83
2022/10/24 00:50:15;;;;;;;75.07;12.60;;;15.10;99.90;;;;;;5101705;28;20819;-84
2022/10/24 00:52:45;;;;;;;77.00;14.10;;;15.10;99.90;;;;;;5101031;28;20171;-83
2022/10/24 00:55:12;;;;;;;79.73;15.10;;;15.10;99.90;;;;;;5101651;28;20824;-83
2022/10/24 00:57:50;;;;;;;74.80;12.27;;;15.10;99.90;;;;;;5101343;28;20941;-83
2022/10/24 01:00:24;;;;;;;74.97;16.30;;;15.10;99.90;;;;;;5100341;28;20417;-83
2022/10/24 01:02:50;;;;;;;81.80;20.73;;;15.00;99.90;;;;;;5101023;28;20389;-83
2022/10/24 01:05:18;;;;;;;75.83;16.50;;;14.90;99.90;;;;;;5101547;28;20402;-84
2022/10/24 01:08:01;;;;;;;75.13;17.43;;;15.00;99.90;;;;;;5102037;28;20645;-83
2022/10/24 01:10:45;;;;;;;74.13;13.93;;;14.90;99.90;;;;;;5101982;28;20435;-83
2022/10/24 01:13:31;;;;;;;79.33;15.17;;;14.90;99.90;;;;;;5101388;28;20383;-83
2022/10/24 01:16:12;;;;;;;75.27;18.17;;;14.90;99.90;;;;;;5100213;28;20432;-83
2022/10/24 01:18:49;;;;;;;83.13;18.27;;;14.80;99.90;;;;;;5101165;28;20487;-84
2022/10/24 01:21:23;;;;;;;79.83;17.87;;;14.80;99.90;;;;;;5101691;28;20470;-84
2022/10/24 01:24:27;;;;;;;71.83;17.13;;;14.80;99.90;;;;;;5102127;28;20742;-83
2022/10/24 01:27:16;;;;;;;76.57;16.60;;;14.80;99.90;;;;;;5068804;28;20430;-84
2022/10/24 01:29:52;;;;;;;72.17;13.10;;;14.80;99.90;;;;;;5103619;28;20420;-84
2022/10/24 01:32:36;;;;;;;70.67;15.40;;;14.80;99.90;;;;;;5103093;28;20374;-83
2022/10/24 01:35:14;;;;;;;76.17;25.80;;;14.80;99.90;;;;;;5102312;28;20449;-83
2022/10/24 01:38:01;;;;;;;80.07;30.83;;;14.70;99.90;;;;;;5102109;28;20964;-84
2022/10/24 01:40:36;;;;;;;80.73;29.87;;;14.70;99.90;;;;;;5101432;28;20393;-84
2022/10/24 01:43:09;;;;;;;79.83;27.93;;;14.70;99.90;;;;;;5101377;28;20385;-83
2022/10/24 01:45:38;;;;;;;91.43;29.20;;;14.80;99.90;;;;;;5099474;28;20389;-84
2022/10/24 01:48:08;;;;;;;75.83;21.30;;;14.80;99.90;;;;;;5099283;28;20404;-83
2022/10/24 01:50:37;;;;;;;75.03;20.80;;;14.80;99.90;;;;;;5103289;28;20434;-84
2022/10/24 01:53:03;;;;;;;77.90;23.73;;;14.70;99.90;;;;;;5103769;28;20474;-84
2022/10/24 01:55:31;;;;;;;79.70;23.10;;;14.70;99.90;;;;;;5103685;28;20401;-84
2022/10/24 01:57:57;;;;;;;77.60;16.63;;;14.70;99.90;;;;;;5102754;28;20446;-84
2022/10/24 02:00:23;;;;;;;79.77;16.33;;;14.70;99.90;;;;;;5102594;28;20501;-84
2022/10/24 02:02:57;;;;;;;73.43;14.43;;;14.70;99.90;;;;;;5103424;28;20835;-84
2022/10/24 02:05:40;;;;;;;74.70;14.63;;;14.70;99.90;;;;;;5100208;28;20738;-84
2022/10/24 02:08:13;;;;;;;74.80;13.70;;;14.70;99.90;;;;;;5103091;28;20401;-84
2022/10/24 02:10:54;;;;;;;76.23;13.97;;;14.70;99.90;;;;;;5102640;28;20378;-84
2022/10/24 02:13:39;;;;;;;74.90;10.40;;;14.70;99.90;;;;;;5102031;28;20447;-84
2022/10/24 02:16:05;;;;;;;75.20;15.80;;;14.70;99.90;;;;;;5102534;28;20385;-84
2022/10/24 02:18:32;;;;;;;70.83;11.73;;;14.70;99.90;;;;;;5101619;28;20472;-84
2022/10/24 02:21:12;;;;;;;72.77;13.00;;;14.70;99.90;;;;;;5103246;28;20421;-84
2022/10/24 02:23:53;;;;;;;75.20;12.73;;;14.70;99.90;;;;;;5102437;28;20402;-84
2022/10/24 02:26:33;;;;;;;76.77;13.80;;;14.70;99.90;;;;;;5102225;28;20738;-84
2022/10/24 02:29:07;;;;;;;74.57;15.37;;;14.70;99.90;;;;;;5101285;28;20830;-84
2022/10/24 02:31:37;;;;;;;73.70;15.10;;;14.70;99.90;;;;;;5100248;28;20397;-84
2022/10/24 02:34:05;;;;;;;82.47;14.30;;;14.70;99.90;;;;;;5102191;28;20402;-84
2022/10/24 02:36:32;;;;;;;76.33;15.40;;;14.70;99.90;;;;;;5101831;28;20499;-84
2022/10/24 02:38:59;;;;;;;76.37;14.20;;;14.70;99.90;;;;;;5102147;28;20540;-84
2022/10/24 02:41:30;;;;;;;81.60;14.80;;;14.70;99.90;;;;;;5101526;28;20531;-84
2022/10/24 02:43:58;;;;;;;75.10;11.10;;;14.80;99.90;;;;;;5100382;28;20436;-84
2022/10/24 02:46:24;;;;;;;72.37;14.73;;;14.70;99.90;;;;;;5101819;28;20447;-84
2022/10/24 02:48:56;;;;;;;73.07;11.57;;;14.70;99.90;;;;;;5100943;28;20447;-84
2022/10/24 02:51:26;;;;;;;80.60;13.27;;;14.80;99.90;;;;;;5101201;28;20389;-84
2022/10/24 02:53:52;;;;;;;73.30;12.33;;;14.80;99.90;;;;;;5083877;28;20773;-84
2022/10/24 02:56:18;;;;;;;83.20;14.07;;;14.80;99.90;;;;;;5101163;28;20899;-84
2022/10/24 02:58:43;;;;;;;75.20;14.47;;;14.80;99.90;;;;;;5101160;28;20453;-84
2022/10/24 03:01:09;;;;;;;75.23;13.17;;;14.80;99.90;;;;;;5098245;28;20176;-83
2022/10/24 03:03:35;;;;;;;76.23;11.40;;;14.80;99.90;;;;;;5096118;28;20171;-83
2022/10/24 03:06:00;;;;;;;77.27;10.37;;;14.80;99.90;;;;;;5098711;28;20574;-83
2022/10/24 03:08:26;;;;;;;76.27;12.27;;;14.90;99.90;;;;;;5098971;28;20183;-84
2022/10/24 03:10:54;;;;;;;78.03;13.70;;;14.90;99.90;;;;;;5097571;28;20163;-83
2022/10/24 03:13:19;;;;;;;71.87;11.97;;;14.90;99.90;;;;;;5099500;28;20206;-83
2022/10/24 03:15:45;;;;;;;71.40;10.63;;;14.90;99.90;;;;;;5099154;28;20405;-83
2022/10/24 03:18:14;;;;;;;71.70;11.60;;;15.00;99.90;;;;;;5099523;28;20190;-83
2022/10/24 03:20:39;;;;;;;73.30;10.83;;;15.00;99.90;;;;;;5099351;28;20179;-83
2022/10/24 03:23:05;;;;;;;71.27;10.23;;;15.00;99.90;;;;;;5097088;28;20403;-83
2022/10/24 03:25:31;;;;;;;74.33;10.87;;;15.00;99.90;;;;;;5098515;28;20183;-83
2022/10/24 03:27:57;;;;;;;71.63;9.67;;;15.00;99.90;;;;;;5098818;28;20960;-83
2022/10/24 03:30:22;;;;;;;70.03;10.50;;;15.00;99.90;;;;;;5098888;28;20186;-83
2022/10/24 03:32:48;;;;;;;69.57;10.77;;;15.00;99.90;;;;;;5098557;28;20155;-83
2022/10/24 03:35:15;;;;;;;75.17;10.50;;;15.00;99.90;;;;;;5097823;28;20537;-83
2022/10/24 03:37:41;;;;;;;72.70;10.13;;;15.00;99.90;;;;;;5096775;28;20179;-83
2022/10/24 03:40:08;;;;;;;76.87;10.97;;;15.00;99.90;;;;;;5097282;28;20409;-83
2022/10/24 03:42:34;;;;;;;73.17;10.93;;;15.00;99.90;;;;;;5098906;28;20480;-83
2022/10/24 03:44:59;;;;;;;71.40;8.47;;;15.00;99.90;;;;;;5098626;28;20904;-83
2022/10/24 03:47:25;;;;;;;74.40;7.17;;;15.00;99.90;;;;;;5099521;28;20175;-83
2022/10/24 03:49:51;;;;;;;70.40;7.47;;;15.00;99.90;;;;;;5096892;28;20206;-83
2022/10/24 03:52:16;;;;;;;72.70;7.50;;;15.00;99.90;;;;;;5096610;28;20168;-83
2022/10/24 03:54:42;;;;;;;73.37;6.90;;;15.00;99.90;;;;;;5096273;28;20187;-83
2022/10/24 03:57:08;;;;;;;69.97;6.20;;;15.00;99.90;;;;;;5096252;28;20519;-84
2022/10/24 03:59:40;;;;;;;68.97;5.70;;;15.00;99.90;;;;;;5096505;28;20183;-83
2022/10/24 04:02:06;;;;;;;68.87;6.50;;;15.00;99.90;;;;;;5098316;28;20419;-84
2022/10/24 04:04:35;;;;;;;69.77;7.00;;;14.90;99.90;;;;;;5098500;28;20401;-83
2022/10/24 04:07:01;;;;;;;72.47;7.70;;;14.90;99.90;;;;;;5098539;28;20761;-84
2022/10/24 04:09:27;;;;;;;71.67;6.47;;;14.90;99.90;;;;;;5098316;28;20416;-83
2022/10/24 04:11:53;;;;;;;71.80;5.70;;;14.90;99.90;;;;;;5096481;28;20197;-83
2022/10/24 04:14:20;;;;;;;71.40;6.87;;;14.90;99.90;;;;;;5096314;28;20500;-83
2022/10/24 04:16:46;;;;;;;69.77;5.90;;;14.90;99.90;;;;;;5097566;28;20171;-83
2022/10/24 04:19:11;;;;;;;68.20;5.30;;;14.90;99.90;;;;;;5096635;28;20542;-83
2022/10/24 04:21:37;;;;;;;69.10;6.27;;;14.90;99.90;;;;;;5098654;28;20530;-84
2022/10/24 04:24:06;;;;;;;72.47;5.80;;;14.80;99.90;;;;;;5098361;28;20221;-83
2022/10/24 04:26:32;;;;;;;71.10;6.00;;;14.90;99.90;;;;;;5097512;28;20159;-83
2022/10/24 04:29:00;;;;;;;75.47;6.73;;;14.90;99.90;;;;;;5097371;28;20754;-83
2022/10/24 04:31:26;;;;;;;67.63;4.90;;;14.90;99.90;;;;;;5094657;28;20207;-83
2022/10/24 04:33:52;;;;;;;70.83;5.37;;;14.90;99.90;;;;;;5096428;28;20405;-83
2022/10/24 04:36:20;;;;;;;67.17;4.63;;;14.90;99.90;;;;;;5100214;28;20174;-83
2022/10/24 04:38:46;;;;;;;68.20;5.00;;;14.90;99.90;;;;;;5099435;28;20199;-83
2022/10/24 04:41:11;;;;;;;67.70;5.00;;;14.90;99.90;;;;;;5100730;28;20487;-83
2022/10/24 04:43:37;;;;;;;67.50;5.70;;;14.90;99.90;;;;;;5100581;28;20179;-84
2022/10/24 04:46:06;;;;;;;66.63;4.87;;;14.90;99.90;;;;;;5101895;28;20485;-83
2022/10/24 04:48:32;;;;;;;70.00;5.57;;;14.90;99.90;;;;;;5101762;28;20519;-84
2022/10/24 04:50:58;;;;;;;70.07;5.30;;;14.90;99.90;;;;;;5099303;28;20441;-84
2022/10/24 04:53:24;;;;;;;68.37;5.60;;;14.80;99.90;;;;;;5098711;28;20417;-84
2022/10/24 04:55:50;;;;;;;68.47;5.30;;;14.80;99.90;;;;;;5100051;28;20462;-83
2022/10/24 04:58:16;;;;;;;66.60;5.40;;;14.90;99.90;;;;;;5101382;28;20197;-84
2022/10/24 05:00:45;;;;;;;72.17;6.97;;;14.90;99.90;;;;;;5101616;28;20416;-84
2022/10/24 05:03:11;;;;;;;72.30;5.93;;;14.90;99.90;;;;;;5098598;28;20420;-84
2022/10/24 05:05:40;;;;;;;70.30;5.27;;;14.90;99.90;;;;;;5101044;28;20398;-84
2022/10/24 05:08:05;;;;;;;70.83;5.73;;;14.80;99.90;;;;;;5098447;28;20440;-84
2022/10/24 05:10:31;;;;;;;69.47;5.50;;;14.80;99.90;;;;;;5100880;28;20408;-84
2022/10/24 05:12:57;;;;;;;66.50;5.30;;;14.80;99.90;;;;;;5100906;28;20163;-84
2022/10/24 05:15:22;;;;;;;70.47;5.50;;;14.80;99.90;;;;;;5099135;28;20200;-83
2022/10/24 05:17:48;;;;;;;69.43;5.20;;;14.80;99.90;;;;;;5099639;28;20294;-83
2022/10/24 05:20:15;;;;;;;74.90;6.27;;;14.70;99.90;;;;;;5157778;22;20677;-85
2022/10/24 05:22:41;;;;;;;65.17;4.90;;;14.70;99.90;;;;;;5097307;28;20262;-85
2022/10/24 05:25:07;;;;;;;67.70;5.50;;;14.70;99.90;;;;;;5100053;28;20429;-87
2022/10/24 05:27:32;;;;;;;67.60;5.00;;;14.60;99.90;;;;;;5103377;28;20530;-85
2022/10/24 05:29:58;;;;;;;68.13;5.67;;;14.60;99.90;;;;;;5100276;28;20417;-85
2022/10/24 05:32:24;;;;;;;67.43;5.60;;;14.50;99.90;;;;;;5098414;28;20167;-85
2022/10/24 05:34:49;;;;;;;70.27;5.80;;;14.50;99.90;;;;;;5100591;28;20167;-85
2022/10/24 05:37:15;;;;;;;71.43;5.93;;;14.50;99.90;;;;;;5097400;28;20249;-85
2022/10/24 05:39:41;;;;;;;68.70;5.00;;;14.40;99.90;;;;;;5098967;28;20195;-85
2022/10/24 05:42:07;;;;;;;68.47;5.63;;;14.40;99.90;;;;;;5098603;28;20206;-87
2022/10/24 05:44:33;;;;;;;68.27;5.63;;;14.40;99.90;;;;;;5100218;28;20610;-86
2022/10/24 05:46:59;;;;;;;72.27;5.63;;;14.40;99.90;;;;;;5096490;28;20458;-86
2022/10/24 05:49:24;;;;;;;67.10;5.60;;;14.40;99.90;;;;;;5097097;28;20192;-85
2022/10/24 05:51:50;;;;;;;75.40;5.90;;;14.40;99.90;;;;;;5099183;28;20401;-86
2022/10/24 05:54:16;;;;;;;69.40;6.17;;;14.40;99.90;;;;;;5099391;28;20246;-86
2022/10/24 05:56:42;;;;;;;74.60;6.10;;;14.40;99.90;;;;;;5099523;28;20250;-86
2022/10/24 05:59:08;;;;;;;66.83;5.70;;;14.40;99.90;;;;;;5097758;28;20997;-87
2022/10/24 06:01:34;;;;;;;69.43;5.60;;;14.40;99.90;;;;;;5097614;28;20576;-86
2022/10/24 06:03:59;;;;;;;68.00;6.20;;;14.30;99.90;;;;;;5098802;28;20390;-87
2022/10/24 06:06:25;;;;;;;71.17;5.73;;;14.30;99.90;;;;;;5097779;28;20175;-86
2022/10/24 06:08:51;;;;;;;71.43;6.10;;;14.20;99.90;;;;;;5098680;28;20187;-85
2022/10/24 06:11:17;;;;;;;74.37;5.97;;;14.30;99.90;;;;;;5097142;28;20170;-85
2022/10/24 06:13:43;;;;;;;74.53;5.77;;;14.20;99.90;;;;;;5098460;28;20394;-86
2022/10/24 06:16:10;;;;;;;66.77;5.53;;;14.20;99.90;;;;;;5098809;28;20166;-86
2022/10/24 06:18:38;;;;;;;66.27;5.20;;;14.20;99.90;;;;;;5098402;28;21022;-86
2022/10/24 06:21:07;;;;;;;69.60;6.00;;;14.20;99.90;;;;;;5098079;28;20510;-86
2022/10/24 06:23:33;;;;;;;70.27;5.00;;;14.30;99.90;;;;;;5097906;28;20402;-86
2022/10/24 06:25:59;;;;;;;67.17;5.10;;;14.30;99.90;;;;;;5097551;28;20412;-86
2022/10/24 06:28:24;;;;;;;72.80;6.50;;;14.20;99.90;;;;;;5099230;28;20789;-85
2022/10/24 06:30:53;;;;;;;69.50;5.93;;;14.30;99.90;;;;;;5097706;28;20191;-86
2022/10/24 06:33:19;;;;;;;69.03;5.83;;;14.30;99.90;;;;;;5097804;28;20413;-86
2022/10/24 06:35:45;;;;;;;67.67;5.93;;;14.30;99.90;;;;;;5099717;28;20409;-85
2022/10/24 06:38:10;;;;;;;69.33;6.47;;;14.40;99.90;;;;;;5099620;28;20540;-86
2022/10/24 06:40:39;;;;;;;66.80;6.97;;;14.40;99.90;;;;;;5097546;28;20412;-85
2022/10/24 06:43:05;;;;;;;70.00;5.70;;;14.40;99.90;;;;;;5098606;28;20146;-86
2022/10/24 06:45:31;;;;;;;65.43;5.77;;;14.50;99.90;;;;;;5096987;28;20405;-85
2022/10/24 06:47:57;;;;;;;74.50;5.80;;;14.50;99.90;;;;;;5096406;28;20400;-86
2022/10/24 06:50:22;;;;;;;67.30;5.90;;;14.50;99.90;;;;;;5096177;28;20454;-86
2022/10/24 06:52:48;;;;;;;69.23;5.83;;;14.50;99.90;;;;;;5097916;28;20245;-85
2022/10/24 06:55:14;;;;;;;68.20;6.20;;;14.50;99.90;;;;;;5097912;28;20159;-87
2022/10/24 06:57:40;;;;;;;70.60;6.57;;;14.60;99.90;;;;;;5097866;28;20186;-85
2022/10/24 07:00:07;;;;;;;67.47;5.90;;;14.60;99.90;;;;;;5098166;28;20179;-86
2022/10/24 07:02:33;;;;;;;68.57;5.67;;;14.70;99.90;;;;;;5098267;28;20218;-86
2022/10/24 07:04:59;;;;;;;70.33;5.70;;;14.70;99.90;;;;;;5101266;28;20389;-87
2022/10/24 07:07:25;;;;;;;69.97;5.60;;;14.70;99.90;;;;;;5099586;28;20163;-86
2022/10/24 07:09:56;;;;;;;69.63;6.40;;;14.80;99.90;;;;;;5097723;28;20182;-86
2022/10/24 07:12:23;;;;;;;69.00;8.70;;;14.90;99.90;;;;;;5096601;28;20175;-86
2022/10/24 07:14:49;;;;;;;68.60;8.97;;;14.90;99.90;;;;;;5096528;28;20409;-86
2022/10/24 07:17:16;;;;;;;69.37;7.50;;;15.00;99.90;;;;;;5099201;28;20488;-85
2022/10/24 07:19:41;;;;;;;69.80;7.93;;;15.10;99.90;;;;;;5099248;28;20955;-86
2022/10/24 07:22:10;;;;;;;69.73;9.57;;;15.10;99.90;;;;;;5097720;28;20403;-85
2022/10/24 07:24:36;;;;;;;67.80;9.00;;;15.20;99.90;;;;;;5097364;28;20636;-86
2022/10/24 07:27:02;;;;;;;70.07;8.80;;;15.30;99.90;;;;;;5096366;28;20416;-86
2022/10/24 07:29:28;;;;;;;71.53;9.20;;;15.40;99.90;;;;;;5098206;28;20467;-87
2022/10/24 07:31:54;;;;;;;67.27;8.13;;;15.40;99.90;;;;;;5097512;28;20431;-86
2022/10/24 07:34:19;;;;;;;70.40;10.60;;;15.40;99.90;;;;;;5097425;28;20162;-87
2022/10/24 07:36:45;;;;;;;65.83;8.13;;;15.50;99.90;;;;;;5096213;28;20219;-86
2022/10/24 07:39:15;;;;;;;67.57;7.07;;;15.60;99.90;;;;;;5097088;28;20275;-86
2022/10/24 07:41:41;;;;;;;68.03;6.47;;;15.60;99.90;;;;;;5098140;28;20508;-86
2022/10/24 07:44:08;;;;;;;67.27;5.97;;;15.70;99.90;;;;;;5098088;28;20795;-87
2022/10/24 07:46:34;;;;;;;72.43;5.90;;;15.70;99.90;;;;;;5095953;28;20472;-86
2022/10/24 07:48:59;;;;;;;69.23;5.47;;;15.70;99.90;;;;;;5095715;28;20801;-86
2022/10/24 07:51:28;;;;;;;72.60;5.77;;;15.70;99.90;;;;;;5096638;28;20519;-86
2022/10/24 07:53:56;;;;;;;66.73;5.57;;;15.70;99.90;;;;;;5095592;28;20651;-87
2022/10/24 07:56:22;;;;;;;68.73;5.60;;;15.80;99.90;;;;;;5097186;28;20918;-86
2022/10/24 07:58:48;;;;;;;66.73;5.00;;;15.80;99.90;;;;;;5095753;28;20448;-85
2022/10/24 08:01:17;;;;;;;68.20;5.00;;;15.80;99.90;;;;;;5097451;28;20163;-86
2022/10/24 08:03:43;;;;;;;66.27;5.20;;;15.80;99.90;;;;;;5097318;28;20401;-86
2022/10/24 08:06:13;;;;;;;66.90;5.40;;;15.90;99.90;;;;;;5096995;28;20484;-86
2022/10/24 08:08:42;;;;;;;67.40;4.70;;;15.90;99.90;;;;;;5096190;28;20436;-86
2022/10/24 08:11:14;;;;;;;67.37;5.27;;;15.90;99.90;;;;;;5101238;28;20474;-87
2022/10/24 08:13:42;;;;;;;65.93;6.73;;;16.00;99.90;;;;;;5102326;28;20377;-87
2022/10/24 08:16:11;;;;;;;66.70;5.93;;;16.00;99.90;;;;;;5100059;28;20399;-87
2022/10/24 08:18:38;;;;;;;67.27;6.70;;;16.00;99.90;;;;;;5101541;28;20499;-87
2022/10/24 08:21:05;;;;;;;69.47;5.80;;;16.00;99.90;;;;;;5102511;28;20429;-85
2022/10/24 08:23:32;;;;;;;70.17;5.47;;;16.10;99.90;;;;;;5104866;28;20416;-85
2022/10/24 08:25:58;;;;;;;66.50;4.87;;;16.10;99.90;;;;;;5102137;28;20922;-86
2022/10/24 08:28:24;;;;;;;67.27;7.50;;;16.20;99.90;;;;;;5099412;28;20425;-87
2022/10/24 08:31:04;;;;;;;68.77;7.57;;;16.20;99.90;;;;;;5102896;28;20170;-87
2022/10/24 08:33:31;;;;;;;66.80;7.10;;;16.20;99.90;;;;;;5101899;28;20386;-85
2022/10/24 08:36:00;;;;;;;70.33;8.37;;;16.20;99.90;;;;;;5101627;28;20974;-86
2022/10/24 08:38:27;;;;;;;70.03;8.80;;;16.20;99.90;;;;;;5100023;28;20453;-86
2022/10/24 08:40:53;;;;;;;69.70;12.33;;;16.20;99.90;;;;;;5099769;28;20448;-86
2022/10/24 08:43:19;;;;;;;69.80;7.77;;;16.20;99.90;;;;;;5100526;28;20397;-86
2022/10/24 08:46:00;;;;;;;72.33;9.73;;;16.30;99.90;;;;;;5101301;28;20415;-86
2022/10/24 08:48:33;;;;;;;71.27;15.30;;;16.40;99.90;;;;;;5101080;28;20550;-88
2022/10/24 08:51:11;;;;;;;74.80;20.70;;;16.50;99.90;;;;;;5101775;28;20383;-87
2022/10/24 08:53:40;;;;;;;78.70;24.13;;;16.40;99.90;;;;;;5102043;28;20389;-86
2022/10/24 08:56:10;;;;;;;75.87;20.57;;;16.50;99.90;;;;;;5099712;28;20409;-85
2022/10/24 08:58:42;;;;;;;76.67;15.27;;;16.50;99.90;;;;;;5099641;28;20457;-86
2022/10/24 09:01:15;;;;;;;77.07;24.70;;;16.60;99.90;;;;;;5101745;28;20371;-85
2022/10/24 09:03:53;;;;;;;83.07;30.43;;;16.60;99.90;;;;;;5099720;28;20765;-85
2022/10/24 09:06:22;;;;;;;81.90;31.77;;;16.70;99.90;;;;;;5099929;28;20410;-85
2022/10/24 09:08:57;;;;;;;77.83;26.73;;;16.80;99.90;;;;;;5100799;28;20469;-86
2022/10/24 09:11:36;;;;;;;81.97;35.07;;;16.90;99.90;;;;;;5099889;28;20474;-87
2022/10/24 09:14:11;;;;;;;82.87;32.00;;;17.00;99.90;;;;;;5100109;28;20391;-86
2022/10/24 09:16:39;;;;;;;77.30;26.60;;;17.10;99.90;;;;;;5101741;28;20383;-86
2022/10/24 09:19:17;;;;;;;74.63;26.17;;;17.20;99.90;;;;;;5101707;28;20461;-85
2022/10/24 09:21:44;;;;;;;72.80;18.90;;;17.40;99.90;;;;;;5100700;28;20421;-85
2022/10/24 09:24:40;;;;;;;70.67;13.80;;;17.50;99.90;;;;;;5100592;28;20399;-87
2022/10/24 09:27:24;;;;;;;73.90;11.37;;;17.60;99.90;;;;;;5101392;28;20748;-87
2022/10/24 09:29:50;;;;;;;73.60;7.80;;;17.70;99.90;;;;;;5100956;28;20429;-87
2022/10/24 09:32:25;;;;;;;71.33;6.70;;;17.80;99.90;;;;;;5100020;28;20407;-86
2022/10/24 09:34:52;;;;;;;72.10;9.13;;;17.90;99.90;;;;;;5098866;28;20430;-87
2022/10/24 09:37:39;;;;;;;74.10;6.70;;;17.90;99.90;;;;;;5100362;28;20795;-86
2022/10/24 09:40:22;;;;;;;71.90;6.80;;;17.90;99.90;;;;;;5100466;28;20426;-86
2022/10/24 09:42:52;;;;;;;68.77;5.53;;;18.00;99.90;;;;;;5099438;28;20414;-86
2022/10/24 09:45:34;;;;;;;72.30;5.10;;;18.10;99.90;;;;;;5099501;28;20416;-86
2022/10/24 09:48:06;;;;;;;68.47;4.83;;;18.40;99.90;;;;;;5098677;28;20449;-87
2022/10/24 09:50:34;;;;;;;70.33;4.33;;;18.60;99.90;;;;;;5101330;28;20378;-86
2022/10/24 09:53:02;;;;;;;68.20;3.80;;;18.70;99.90;;;;;;5099899;28;20401;-86
2022/10/24 09:55:29;;;;;;;68.70;3.80;;;18.80;88.00;;;;;;5099990;28;20397;-86
2022/10/24 09:57:59;;;;;;;72.80;3.33;;;19.00;63.20;;;;;;5098481;28;20460;-86
2022/10/24 10:00:33;;;;;;;67.13;2.90;;;19.10;52.50;;;;;;5099343;28;20512;-86
2022/10/24 10:03:03;;;;;;;69.60;2.63;;;19.10;49.80;;;;;;5100128;28;20864;-86
2022/10/24 10:06:03;;;;;;;66.30;3.07;;;19.00;55.50;;;;;;5098624;28;20400;-86
2022/10/24 10:08:36;;;;;;;73.23;3.40;;;19.00;46.80;;;;;;5078437;28;20429;-87
2022/10/24 10:11:08;;;;;;;67.70;3.10;;;19.00;47.70;;;;;;5099030;28;20401;-86
2022/10/24 10:13:44;;;;;;;68.57;3.80;;;19.10;49.00;;;;;;5099823;28;20386;-87
2022/10/24 10:16:30;;;;;;;67.57;3.50;;;19.20;56.10;;;;;;5099612;28;20384;-87
2022/10/24 10:19:20;;;;;;;70.83;4.30;;;19.40;48.40;;;;;;5099798;28;20461;-86
2022/10/24 10:21:56;;;;;;;68.70;3.37;;;19.50;41.10;;;;;;5099829;28;20947;-87
2022/10/24 10:24:45;;;;;;;77.77;4.30;;;19.40;45.60;;;;;;5098453;28;20369;-86
2022/10/24 10:27:33;;;;;;;68.30;3.40;;;19.30;36.70;;;;;;5100986;28;20389;-86
2022/10/24 10:30:11;;;;;;;68.70;3.63;;;19.20;42.70;;;;;;5100049;28;20409;-86
2022/10/24 10:33:01;;;;;;;69.27;3.77;;;19.00;46.50;;;;;;5097772;28;20404;-88
2022/10/24 10:35:39;;;;;;;66.77;3.30;;;18.90;39.70;;;;;;5098563;28;20923;-86
2022/10/24 10:38:32;;;;;;;66.17;2.63;;;18.70;47.60;;;;;;5099248;28;20997;-86
2022/10/24 10:41:25;;;;;;;68.10;3.13;;;18.50;55.40;;;;;;5098244;28;20402;-86
2022/10/24 10:44:28;;;;;;;70.30;3.53;;;18.60;52.80;;;;;;5097937;28;20437;-86
2022/10/24 10:47:15;;;;;;;70.57;3.80;;;18.60;54.50;;;;;;5099284;28;20446;-86
2022/10/24 10:49:41;;;;;;;72.13;3.43;;;18.70;55.60;;;;;;5097815;28;20799;-86
2022/10/24 10:52:09;;;;;;;70.67;3.30;;;18.80;55.40;;;;;;5099035;28;20404;-86
2022/10/24 10:54:57;;;;;;;69.90;3.70;;;18.90;55.00;;;;;;5099075;28;20401;-86
2022/10/24 10:57:43;;;;;;;69.03;3.40;;;18.90;53.60;;;;;;5097051;28;20467;-85
2022/10/24 11:00:15;;;;;;;69.37;4.00;;;18.80;50.50;;;;;;5096809;28;20425;-86
2022/10/24 11:03:12;;;;;;;73.00;3.80;;;18.90;53.00;;;;;;5097527;28;20405;-87
2022/10/24 11:05:52;;;;;;;68.80;3.20;;;18.80;56.50;;;;;;5097305;28;20425;-87
2022/10/24 11:08:38;;;;;;;70.40;3.40;;;18.80;52.50;;;;;;5098337;28;20401;-86
2022/10/24 11:11:15;;;;;;;69.30;3.57;;;18.80;53.60;;;;;;5097197;28;20844;-87
2022/10/24 11:14:13;;;;;;;71.10;3.57;;;18.70;54.70;;;;;;5097249;28;20405;-86
2022/10/24 11:16:44;;;;;;;72.70;3.60;;;18.60;65.40;;;;;;5097151;28;20458;-86
2022/10/24 11:19:26;;;;;;;72.00;3.60;;;18.60;62.00;;;;;;5097194;28;20449;-86
2022/10/24 11:21:54;;;;;;;68.10;3.10;;;18.60;66.90;;;;;;5113168;23;20546;-85
2022/10/24 11:24:24;;;;;;;68.57;3.37;;;18.50;72.10;;;;;;5104439;28;20495;-85
2022/10/24 11:27:08;;;;;;;67.83;3.40;;;18.40;69.10;;;;;;5104703;28;20370;-84
2022/10/24 11:29:55;;;;;;;68.70;3.80;;;18.60;74.00;;;;;;5103191;28;20424;-85
2022/10/24 11:32:33;;;;;;;66.20;3.03;;;18.80;57.30;;;;;;5105899;28;20378;-84
2022/10/24 11:35:26;;;;;;;70.27;3.30;;;18.80;64.80;;;;;;5105011;28;20435;-84
2022/10/24 11:38:19;;;;;;;67.47;3.20;;;18.90;67.70;;;;;;5105210;28;20425;-85
2022/10/24 11:40:49;;;;;;;68.80;3.70;;;18.80;63.60;;;;;;5099076;28;20414;-85
2022/10/24 11:43:26;;;;;;;69.80;5.10;;;18.90;55.40;;;;;;5100900;28;20386;-84
2022/10/24 11:46:15;;;;;;;68.23;3.40;;;18.80;46.90;;;;;;5101679;28;20858;-85
2022/10/24 11:48:59;;;;;;;67.50;4.13;;;18.80;47.60;;;;;;5099799;28;20449;-85
2022/10/24 11:51:57;;;;;;;69.00;2.93;;;18.60;55.20;;;;;;5100217;28;20385;-86
2022/10/24 11:54:52;;;;;;;68.40;3.30;;;18.60;57.50;;;;;;5090591;28;20989;-86
2022/10/24 11:57:27;;;;;;;71.10;3.10;;;18.60;53.80;;;;;;5093046;28;20414;-85
2022/10/24 11:59:54;;;;;;;70.60;3.80;;;18.60;63.00;;;;;;5098121;28;20429;-85
2022/10/24 12:02:55;;;;;;;72.37;4.43;;;18.50;61.20;;;;;;5098459;28;20416;-85
2022/10/24 12:05:57;;;;;;;69.27;3.50;;;18.50;59.90;;;;;;5077003;28;20485;-85
2022/10/24 12:08:45;;;;;;;71.67;4.10;;;18.50;61.60;;;;;;5098927;28;20417;-85
2022/10/24 12:11:19;;;;;;;69.20;3.10;;;18.50;72.30;;;;;;5099022;28;20446;-85
2022/10/24 12:14:23;;;;;;;67.30;3.17;;;18.70;68.90;;;;;;5098455;28;20373;-85
2022/10/24 12:17:14;;;;;;;67.17;3.13;;;18.70;72.80;;;;;;5063581;28;20415;-84
2022/10/24 12:19:42;;;;;;;68.20;3.40;;;18.70;62.60;;;;;;5098350;28;20505;-85
2022/10/24 12:22:15;;;;;;;67.10;3.40;;;18.80;63.60;;;;;;5096763;28;20405;-85
2022/10/24 12:24:41;;;;;;;68.30;3.60;;;18.90;66.60;;;;;;5098353;28;21011;-85
2022/10/24 12:27:23;;;;;;;70.47;3.30;;;18.80;66.60;;;;;;5097605;28;20471;-85
2022/10/24 12:30:14;;;;;;;71.20;3.47;;;18.70;64.40;;;;;;5097721;28;20250;-85
2022/10/24 12:32:44;;;;;;;68.47;3.60;;;18.70;71.10;;;;;;5102802;28;20420;-85
2022/10/24 12:35:30;;;;;;;66.07;3.50;;;18.70;67.60;;;;;;5103429;28;20403;-84
2022/10/24 12:37:56;;;;;;;69.40;3.30;;;18.60;71.10;;;;;;5100719;28;20449;-85
2022/10/24 12:40:44;;;;;;;68.60;3.63;;;18.50;67.20;;;;;;5102976;28;20434;-84
2022/10/24 12:43:15;;;;;;;69.17;3.40;;;18.50;67.60;;;;;;5103259;28;20389;-85
2022/10/24 12:45:40;;;;;;;69.10;3.83;;;18.40;80.40;;;;;;5103658;28;20398;-85
2022/10/24 12:48:27;;;;;;;71.07;3.50;;;18.40;84.20;;;;;;5102426;28;20799;-85
2022/10/24 12:51:35;;;;;;;68.23;3.90;;;18.30;83.90;;;;;;5102493;28;20202;-85
2022/10/24 12:54:14;;;;;;;71.00;3.33;;;18.30;94.90;;;;;;5090083;28;20409;-85
2022/10/24 12:56:49;;;;;;;68.30;3.33;;;18.20;90.40;;;;;;5105426;28;20440;-85